Time Latitude Longitude Accuracy (66% radius in meters) Altitude (meters) Speed (km/hour) Bearing (degrees) Battery (%) GPS flag
09:42:23 55.943981 38.068105 3 176.89999389648 0 0 68 1 delete
09:42:20 55.943981 38.068105 3 176.89999389648 0 0 68 1 delete
09:42:14 55.943925 38.067982 3.5 185 0.11999999731779 214.23889160156 68 1 delete
09:42:11 55.943888 38.067911 3 188.10000610352 0 0 68 1 delete
09:42:05 55.943888 38.067912 3.5 188.10000610352 0.10999999940395 77.184448242188 68 1 delete
09:42:02 55.943882 38.067899 2.5 188.39999389648 0 0 68 1 delete
09:41:50 55.943877 38.067859 4.5 188.5 0 0 68 1 delete
09:41:41 55.943874 38.067828 4 189 0.56999999284744 85.858154296875 68 1 delete
09:41:35 55.943855 38.067748 4 188.89999389648 0.50999999046326 71.779174804688 68 1 delete
09:41:32 55.943833 38.067674 4 188.5 1.6599999666214 79.414672851562 68 1 delete
09:41:29 55.943815 38.067589 3 188.89999389648 2.2300000190735 73.701782226562 68 1 delete
09:41:20 55.943800 38.067414 2.5 189.69999694824 1.0599999427795 41.7041015625 68 1 delete
09:41:17 55.943752 38.067302 2.5 188.80000305176 3.8899998664856 48.768310546875 68 1 delete
09:41:14 55.943601 38.067146 2.5 192 3.9399998188019 358.17077636719 68 1 delete
09:41:11 55.943441 38.067005 2.5 192.5 3.1999998092651 33.409423828125 68 1 delete
09:41:08 55.943338 38.066832 2.5 192.5 1.4499999284744 49.658203125 68 1 delete
09:41:02 55.943307 38.066773 2.5 189.60000610352 0.37999999523163 179.48913574219 68 1 delete
09:40:59 55.943264 38.066834 2 190.19999694824 2.0299999713898 12.453002929688 68 1 delete
09:40:56 55.943149 38.066887 2.5 193.30000305176 3.0199999809265 340.78491210938 68 1 delete
09:40:53 55.943017 38.066897 3 196.5 3.3199999332428 340.84533691406 68 1 delete
09:40:50 55.942841 38.066904 3.5 198.60000610352 3.2200000286102 342.78991699219 68 1 delete
09:40:47 55.942731 38.066943 3.5 198.39999389648 2.9700000286102 337.54943847656 68 1 delete
09:40:44 55.942636 38.066979 3.5 198.89999389648 3.25 331.23779296875 68 1 delete
09:40:41 55.942535 38.067021 3.5 198.89999389648 3.4199998378754 336.80236816406 68 1 delete
09:40:38 55.942431 38.067028 3.5 198.30000305176 2.7999999523163 353.24340820312 68 1 delete
09:40:35 55.942335 38.066997 4 198.30000305176 3.1199998855591 0.2471923828125 68 1 delete
09:40:32 55.942259 38.066934 4 198.39999389648 1.7300000190735 6.031494140625 68 1 delete
09:40:29 55.942262 38.066796 5 197.39999389648 2.289999961853 128.91906738281 68 1 delete
09:40:26 55.942279 38.066665 4 196.60000610352 2.5299999713898 127.29858398438 68 1 delete
09:40:23 55.942273 38.066525 4.5 196.19999694824 2.5599999427795 121.376953125 68 1 delete
09:40:20 55.942254 38.066422 3.5 196 1.6999999284744 75.437622070312 68 1 delete
09:40:17 55.942190 38.066335 3 196.60000610352 2.0499999523163 43.934326171875 68 1 delete
09:40:11 55.942093 38.066221 4 195.30000305176 0.35999998450279 4.3505859375 68 1 delete
09:40:08 55.942029 38.066207 3 195.89999389648 2.0299999713898 352.46337890625 68 1 delete
09:40:05 55.941933 38.066199 3.5 196 3.7799999713898 12.689208984375 68 1 delete
09:40:02 55.941833 38.066133 3.5 195.30000305176 2.3499999046326 356.07788085938 68 1 delete
09:39:59 55.941743 38.066066 3.5 194.10000610352 2.2000000476837 0.362548828125 68 1 delete
09:39:56 55.941702 38.065993 3.5 193.5 1.5199999809265 27.301025390625 68 1 delete
09:39:53 55.941643 38.065929 3 192.89999389648 2.8199999332428 11.475219726562 68 1 delete
09:39:50 55.941696 38.065783 3 192.89999389648 4.0099997520447 141.30065917969 68 1 delete
09:39:47 55.941796 38.065616 3 193.39999389648 4.1999998092651 129.287109375 68 1 delete
09:39:44 55.941871 38.065387 3 194 4.4800000190735 128.08959960938 68 1 delete
09:39:41 55.941938 38.065112 3 194.69999694824 4.1700000762939 128.10607910156 68 1 delete
09:39:38 55.941971 38.064870 3 196.10000610352 3.7099997997284 129.92431640625 68 1 delete
09:39:35 55.941954 38.064551 4 198.89999389648 3.6599998474121 125.09033203125 68 1 delete
09:39:32 55.941973 38.064273 4.5 199.5 3.0299999713898 122.33825683594 68 1 delete
09:39:29 55.942015 38.064079 4.5 198.30000305176 2.7000000476837 118.5205078125 68 1 delete
09:39:26 55.942057 38.063904 4.5 197.5 2.6299998760223 137.73010253906 68 1 delete
09:39:23 55.942086 38.063761 4.5 198.19999694824 3.0899999141693 125.31555175781 68 1 delete
09:39:20 55.942130 38.063583 4 197.89999389648 2.4199998378754 123.73352050781 68 1 delete